Saturday, July 4, 2015, 11:16 AM EDT

KOKV, Winchester Regional

Location: Winchester, VA, United States Lat: 39.15
Local Time: 11:16 AM EDT (15:16 GMT) Lon: -78.15
Time Zone: US/Eastern Elev: 728 ft

Show me the last for .
Show Decoded

2015-07-04 10:55 METAR KOKV 041455Z AUTO 00000KT 10SM BKN016 BKN120 24/20 A2992 RMK AO2 =
2015-07-04 10:35 METAR KOKV 041435Z AUTO 19005KT 10SM BKN016 OVC120 23/20 A2992 RMK AO2 =
2015-07-04 10:15 METAR KOKV 041415Z AUTO 19003KT 10SM OVC016 23/20 A2992 RMK AO2 =
2015-07-04 09:55 METAR KOKV 041355Z AUTO 16004KT 7SM OVC014 22/20 A2992 RMK AO2 =
2015-07-04 09:35 METAR KOKV 041335Z AUTO 23004KT 7SM SCT010 OVC019 22/20 A2992 RMK AO2 =
2015-07-04 09:15 METAR KOKV 041315Z AUTO 00000KT 7SM OVC021 22/20 A2992 RMK AO2 =
2015-07-04 08:55 METAR KOKV 041255Z AUTO 19003KT 7SM SCT007 OVC023 22/20 A2992 RMK AO2 =
2015-07-04 08:35 METAR KOKV 041235Z AUTO 20004KT 7SM SCT007 BKN025 OVC060 21/20 A2992 RMK AO2 =
2015-07-04 07:55 METAR KOKV 041155Z AUTO 17003KT 4SM BR OVC027 21/20 A2991 RMK AO2 =
2015-07-04 07:35 METAR KOKV 041135Z AUTO 17003KT 4SM BR BKN029 BKN034 OVC085 20/20 A2991 RMK AO2
                 =
2015-07-04 07:15 METAR KOKV 041115Z AUTO 00000KT 4SM BR BKN031 BKN050 BKN075 20/20 A2990 RMK AO2
                 =
2015-07-04 06:55 METAR KOKV 041055Z AUTO 14003KT 4SM BR SCT035 SCT050 BKN090 20/20 A2990 RMK AO2
                 =
2015-07-04 06:35 METAR KOKV 041035Z AUTO 14003KT 3SM BR SCT017 SCT022 BKN037 20/20 A2990 RMK AO2
                 =
2015-07-04 06:15 METAR KOKV 041015Z AUTO 00000KT 3SM BR BKN017 OVC022 20/20 A2990 RMK AO2 =
2015-07-04 05:55 METAR KOKV 040955Z AUTO 00000KT 4SM BR BKN017 OVC043 20/20 A2990 RMK AO2 =
2015-07-04 05:35 METAR KOKV 040935Z AUTO 00000KT 5SM BR BKN017 BKN022 OVC043 20/19 A2989 RMK AO2
                 =
2015-07-04 04:55 METAR KOKV 040855Z AUTO 00000KT 7SM BKN038 BKN050 OVC075 20/19 A2989 RMK AO2 =
2015-07-04 04:35 METAR KOKV 040835Z AUTO 14004KT 5SM BR SCT019 BKN055 OVC065 20/20 A2989 RMK AO2
                 =
2015-07-04 04:15 METAR KOKV 040815Z AUTO 00000KT 5SM BR SCT017 BKN060 OVC080 20/20 A2990 RMK AO2
                 =
2015-07-04 03:35 METAR KOKV 040735Z AUTO 14003KT 7SM OVC040 21/20 A2990 RMK AO2 LTG DSNT NW =
2015-07-04 03:15 METAR KOKV 040715Z AUTO 00000KT 7SM OVC040 20/20 A2990 RMK AO2 =
2015-07-04 02:55 METAR KOKV 040655Z AUTO 00000KT 7SM BKN040 OVC070 20/20 A2991 RMK AO2 =
2015-07-04 02:35 METAR KOKV 040635Z AUTO 00000KT 7SM OVC040 20/20 A2991 RMK AO2 =
2015-07-04 02:15 METAR KOKV 040615Z AUTO 00000KT 7SM OVC040 20/20 A2991 RMK AO2 =
2015-07-04 01:55 METAR KOKV 040555Z AUTO 00000KT 7SM OVC039 20/20 A2992 RMK AO2 =
2015-07-04 01:35 METAR KOKV 040535Z AUTO 00000KT 7SM OVC039 20/19 A2992 RMK AO2 =
2015-07-04 01:15 METAR KOKV 040515Z AUTO 00000KT 7SM OVC037 21/19 A2993 RMK AO2 =
2015-07-04 00:55 METAR KOKV 040455Z AUTO 17003KT 7SM RA OVC032 21/20 A2993 RMK AO2 P0001 =
2015-07-04 00:35 METAR KOKV 040435Z AUTO 19003KT 7SM RA BKN030 OVC036 21/19 A2994 RMK AO2 =
2015-07-04 00:15 METAR KOKV 040415Z AUTO 17003KT 7SM SCT028 BKN040 OVC050 21/20 A2994 RMK AO2 =
2015-07-03 23:35 METAR KOKV 040335Z AUTO 00000KT 7SM -DZ SCT019 BKN039 OVC060 21/20 A2994 RMK AO2
                 =
2015-07-03 23:15 METAR KOKV 040315Z AUTO 18003KT 5SM -RA SCT037 OVC060 21/20 A2994 RMK AO2 =
2015-07-03 22:55 METAR KOKV 040255Z AUTO 13003KT 7SM -DZ BKN037 BKN050 OVC060 21/20 A2994 RMK AO2
                 =
2015-07-03 22:35 METAR KOKV 040235Z AUTO 11004KT 7SM -RA BKN037 BKN042 OVC065 21/20 A2994 RMK AO2
                 =
2015-07-03 22:15 METAR KOKV 040215Z AUTO 13003KT 7SM SCT020 BKN042 OVC065 21/20 A2994 RMK AO2 =
2015-07-03 21:35 METAR KOKV 040135Z AUTO 00000KT 7SM SCT024 BKN032 OVC065 21/20 A2993 RMK AO2 =
2015-07-03 21:15 METAR KOKV 040115Z AUTO 09003KT 7SM SCT028 BKN037 OVC065 21/20 A2993 RMK AO2 =
2015-07-03 20:55 METAR KOKV 040055Z AUTO 00000KT 7SM SCT037 BKN043 OVC055 22/20 A2993 RMK AO2 =
2015-07-03 20:35 METAR KOKV 040035Z AUTO 09003KT 7SM BKN055 OVC085 22/20 A2993 RMK AO2 =
2015-07-03 20:15 METAR KOKV 040015Z AUTO 00000KT 7SM OVC055 22/19 A2994 RMK AO2 =
2015-07-03 19:35 METAR KOKV 032335Z AUTO 00000KT 7SM -DZ BKN050 BKN080 OVC110 22/20 A2993 RMK AO2
                 =
2015-07-03 19:15 METAR KOKV 032315Z AUTO 00000KT 10SM -DZ SCT050 OVC080 22/19 A2994 RMK AO2 =
2015-07-03 18:55 METAR KOKV 032255Z AUTO 00000KT 7SM -DZ SCT046 BKN060 OVC080 22/19 A2995 RMK AO2
                 =
2015-07-03 18:35 METAR KOKV 032235Z AUTO 00000KT 7SM -DZ BKN040 BKN046 OVC065 22/19 A2995 RMK AO2
                 =
2015-07-03 18:15 METAR KOKV 032215Z AUTO 20003KT 7SM DZ BKN039 OVC046 22/19 A2995 RMK AO2 =
2015-07-03 17:55 METAR KOKV 032155Z AUTO 19004KT 7SM -DZ OVC048 22/18 A2996 RMK AO2 =
2015-07-03 17:35 METAR KOKV 032135Z AUTO 18009KT 10SM BKN050 BKN070 OVC110 24/18 A2996 RMK AO2 =
2015-07-03 16:55 METAR KOKV 032055Z AUTO 17004KT 10SM OVC050 25/17 A2995 RMK AO2 =
2015-07-03 16:35 METAR KOKV 032035Z AUTO 16006KT 10SM BKN046 OVC060 25/17 A2995 RMK AO2 =
2015-07-03 16:15 METAR KOKV 032015Z AUTO 18007KT 10SM BKN050 OVC080 25/17 A2996 RMK AO2 =
2015-07-03 15:55 METAR KOKV 031955Z AUTO 15007KT 10SM OVC080 25/17 A2996 RMK AO2 =
2015-07-03 15:35 METAR KOKV 031935Z AUTO 16008KT 10SM BKN080 BKN100 26/17 A2997 RMK AO2 =
2015-07-03 15:15 METAR KOKV 031915Z AUTO 17008KT 10SM SCT080 SCT100 26/17 A2997 RMK AO2 =
2015-07-03 14:55 METAR KOKV 031855Z AUTO 16009KT 10SM SCT030 SCT038 SCT090 26/18 A2997 RMK AO2 =
2015-07-03 14:35 METAR KOKV 031835Z AUTO 12010KT 10SM SCT030 BKN036 BKN080 26/18 A2997 RMK AO2 =
2015-07-03 14:15 METAR KOKV 031815Z AUTO 17009KT 10SM SCT030 SCT050 BKN080 26/18 A2998 RMK AO2 =
2015-07-03 13:55 METAR KOKV 031755Z AUTO 14009KT 10SM SCT028 SCT033 SCT040 26/18 A2998 RMK AO2 =
2015-07-03 13:35 METAR KOKV 031735Z AUTO 12010KT 10SM SCT028 SCT034 BKN040 25/18 A2999 RMK AO2 =
2015-07-03 13:15 METAR KOKV 031715Z AUTO 11007KT 10SM SCT030 SCT036 25/18 A2999 RMK AO2 =
2015-07-03 12:55 METAR KOKV 031655Z AUTO 15006KT 10SM SCT027 26/18 A2999 RMK AO2 =
2015-07-03 12:35 METAR KOKV 031635Z AUTO 11007KT 10SM SCT024 SCT033 SCT049 26/18 A2999 RMK AO2 =
2015-07-03 12:15 METAR KOKV 031615Z AUTO 14006KT 10SM BKN024 BKN028 BKN035 25/18 A3000 RMK AO2 =
2015-07-03 11:55 METAR KOKV 031555Z AUTO 11005KT 10SM BKN020 OVC029 25/18 A3000 RMK AO2 =
2015-07-03 11:35 METAR KOKV 031535Z AUTO 00000KT 10SM OVC020 23/18 A3000 RMK AO2 =

Support USWX by starting your Amazon purchase here.